Portada
METAR-TAF:

METAR-TAF

Aeroports :

Okayama, Japó

latitud: 34-45N, longitud: 133-51E, altitud: 241 m

Observació

L'informe es va fer fa 1 hora i 48 minuts, a les 12:00 UTC
Vent 1 kt del Oest/Sud-Oest
Temperatura 19°C
Humitat 83%
Pressió 1006 hPa
Visibilitat 10 km o més
Escasses núvols a una alçada de 2500 ft
Cel ennuvolat

METAR: RJOB 031200Z 24001KT 9999 FEW025 BKN/// 19/16 Q1006

Hora: 22:48 (13:48 UTC)

Pronòstic

L'informe es va fer fa 2 hores i 40 minuts, a les 11:08 UTC
Pronòstic vàlid del 03 a les 12 UTC al 04 a les 18 UTC
Vent 5 kt del Nord-Est
Visibilitat 10 km o més
Escasses núvols a una alçada de 3000 ft
Evolucionant progressivament
l' 03 a les 21 UTC al 03 a les 23 UTC
Vent 6 kt del Oest/Sud-Oest

TAF: RJOB 031108Z 0312/0418 05005KT 9999 FEW030 BECMG 0321/0323 24006KT

Observacions i pronòstics meteorològics de més de 4000 aeroports (METAR i TAF).

Les estacions disponibles són els punts grocs i vermells al mapa.

Posi el ratolí al punt desitjat per veure el nom de l'estació.

Feu clic per veure les observacions i els pronòstics meteorològics.

Per canviar el mapa: feu clic els botons verds amb una creu de color negre per apropar; al botó verd amb un guió per allunyar la imatge; o en les fletxes verdes per a mapes adjacents.


METAR-TAF: